createdAt,value
2022-08-26T00:01:45.639Z,49.55
2022-08-26T00:06:38.416Z,49.57
2022-08-26T00:11:31.118Z,49.57
2022-08-26T00:16:24.000Z,49.45
2022-08-26T00:21:16.380Z,49.62
2022-08-26T00:26:08.755Z,49.42
2022-08-26T00:31:00.897Z,49.56
2022-08-26T00:35:53.753Z,49.59
2022-08-26T00:40:46.514Z,49.5
2022-08-26T00:45:39.417Z,49.37
2022-08-26T00:50:31.744Z,49.64
2022-08-26T00:55:20.445Z,49.51
2022-08-26T01:00:12.712Z,49.59
2022-08-26T01:05:06.537Z,49.74
2022-08-26T01:09:59.503Z,49.83
2022-08-26T01:14:52.586Z,49.58
2022-08-26T01:19:47.285Z,49.7
2022-08-26T01:24:41.752Z,49.73
2022-08-26T01:29:34.134Z,49.76
2022-08-26T01:34:26.665Z,49.73
2022-08-26T01:39:19.522Z,49.71
2022-08-26T01:44:12.254Z,49.71
2022-08-26T01:49:04.813Z,49.74
2022-08-26T01:53:57.605Z,49.52
2022-08-26T01:58:50.286Z,49.47
2022-08-26T02:03:42.924Z,49.4
2022-08-26T02:08:35.725Z,49.6
2022-08-26T02:13:28.316Z,49.55
2022-08-26T02:18:21.236Z,49.3
2022-08-26T02:23:13.782Z,49.45
2022-08-26T02:28:06.744Z,49.22
2022-08-26T02:32:59.386Z,49.28
2022-08-26T02:37:54.104Z,49.46
2022-08-26T02:42:46.821Z,49.05
2022-08-26T02:47:39.453Z,49.2
2022-08-26T02:52:31.746Z,49.19
2022-08-26T02:57:24.631Z,49.05
2022-08-26T03:02:17.386Z,49.12
2022-08-26T03:07:09.921Z,49.33
2022-08-26T03:12:04.708Z,49.34
2022-08-26T03:16:57.247Z,49.34
2022-08-26T03:21:49.961Z,49.31
2022-08-26T03:26:51.935Z,49.34
2022-08-26T03:31:37.335Z,49.31
2022-08-26T03:36:29.715Z,49.31
2022-08-26T03:41:22.348Z,49.28
2022-08-26T03:51:07.801Z,49.41
2022-08-26T04:00:55.351Z,49.34
2022-08-26T04:05:46.165Z,49.34
2022-08-26T04:10:39.009Z,49.44
2022-08-26T04:15:31.777Z,49.19
2022-08-26T04:20:24.306Z,49.46
2022-08-26T04:25:16.983Z,49.22
2022-08-26T04:30:10.865Z,49.1
2022-08-26T04:35:03.368Z,49.11
2022-08-26T04:39:56.193Z,49.13
2022-08-26T04:44:49.004Z,49.15
2022-08-26T04:49:41.537Z,49.17
2022-08-26T04:54:34.400Z,49.19
2022-08-26T04:59:26.935Z,49.23
2022-08-26T05:04:19.448Z,49.23
2022-08-26T05:09:12.096Z,49.76
2022-08-26T05:14:04.877Z,50.49
2022-08-26T05:18:57.754Z,52.22
2022-08-26T05:23:50.291Z,50.93
2022-08-26T05:28:42.959Z,51.48
2022-08-26T05:33:35.272Z,52.29
2022-08-26T05:38:30.178Z,52.44
2022-08-26T05:43:21.035Z,53.52
2022-08-26T05:48:13.398Z,53.02
2022-08-26T05:53:06.243Z,54.79
2022-08-26T05:57:59.302Z,54.61
2022-08-26T06:02:52.221Z,54.47
2022-08-26T06:07:45.086Z,55
2022-08-26T06:12:38.184Z,54.71
2022-08-26T06:17:30.711Z,55.84
2022-08-26T06:22:23.655Z,56.08
2022-08-26T06:27:16.014Z,55.87
2022-08-26T06:32:08.894Z,57.59
2022-08-26T06:37:01.986Z,56.78
2022-08-26T06:41:48.629Z,56
2022-08-26T06:46:41.898Z,55.34
2022-08-26T06:51:35.736Z,55.25
2022-08-26T06:56:28.150Z,55.38
2022-08-26T07:01:21.317Z,56.19
2022-08-26T07:06:13.845Z,56.21
2022-08-26T07:11:06.520Z,56.25
2022-08-26T07:16:02.842Z,55.41
2022-08-26T07:20:53.469Z,56.29
2022-08-26T07:25:46.142Z,56.07
2022-08-26T07:30:33.346Z,55.69
2022-08-26T07:35:27.193Z,55.43
2022-08-26T07:40:20.729Z,55.92
2022-08-26T07:45:13.460Z,55.54
2022-08-26T07:50:06.075Z,55.76
2022-08-26T07:54:58.946Z,55.93
2022-08-26T07:59:52.137Z,54.89
2022-08-26T08:04:44.990Z,54.84
2022-08-26T08:09:37.938Z,55.32
2022-08-26T08:14:30.409Z,54.8
2022-08-26T08:19:23.075Z,54.07
2022-08-26T08:24:15.855Z,53.92
2022-08-26T08:29:08.430Z,54.75
2022-08-26T08:34:01.162Z,54.12
2022-08-26T08:38:59.423Z,53.05
2022-08-26T08:43:51.129Z,52.82
2022-08-26T08:48:43.947Z,52.54
2022-08-26T08:53:31.076Z,52.35
2022-08-26T08:58:24.772Z,52.24
2022-08-26T09:03:18.639Z,51.81
2022-08-26T09:08:11.713Z,51.71
2022-08-26T09:13:04.177Z,51.88
2022-08-26T09:17:57.301Z,51.71
2022-08-26T09:22:50.463Z,51.35
2022-08-26T09:27:43.425Z,52.43
2022-08-26T09:32:36.225Z,51.04
2022-08-26T09:37:29.193Z,51.85
2022-08-26T09:42:22.003Z,50.81
2022-08-26T09:47:14.842Z,51.6
2022-08-26T09:52:07.298Z,50.77
2022-08-26T09:57:00.098Z,50.51
2022-08-26T10:01:53.080Z,50.87
2022-08-26T10:06:45.602Z,50.98
2022-08-26T10:11:38.203Z,50.24
2022-08-26T10:16:31.001Z,49.66
2022-08-26T10:21:23.654Z,49.82
2022-08-26T10:26:16.451Z,49.73
2022-08-26T10:31:09.128Z,49.87
2022-08-26T10:36:01.812Z,49.95
2022-08-26T10:40:54.648Z,49.87
2022-08-26T10:45:47.266Z,49.79
2022-08-26T10:50:40.005Z,49.95
2022-08-26T10:55:34.811Z,50.07
2022-08-26T11:00:25.334Z,49.9
2022-08-26T11:05:18.044Z,50.12
2022-08-26T11:15:05.095Z,50.38
2022-08-26T11:20:01.384Z,50.43
2022-08-26T11:24:49.775Z,50.48
2022-08-26T11:34:35.248Z,50.45
2022-08-26T11:39:28.082Z,50.38
2022-08-26T11:44:20.983Z,50.43
2022-08-26T11:54:06.539Z,50.45
2022-08-26T11:58:59.404Z,50.29
2022-08-26T12:03:52.519Z,50.14
2022-08-26T12:08:45.426Z,50.17
2022-08-26T12:13:37.848Z,50.18
2022-08-26T12:18:30.800Z,50.24
2022-08-26T12:23:23.591Z,50.02
2022-08-26T12:28:16.627Z,49.96
2022-08-26T12:33:21.979Z,49.92
2022-08-26T12:38:02.253Z,49.76
2022-08-26T12:42:55.208Z,49.99
2022-08-26T12:47:47.823Z,49.99
2022-08-26T12:52:40.499Z,49.88
2022-08-26T12:57:33.386Z,49.66
2022-08-26T13:02:26.323Z,49.8
2022-08-26T13:07:19.197Z,49.81
2022-08-26T13:12:12.199Z,49.5
2022-08-26T13:17:04.747Z,49.53
2022-08-26T13:21:57.665Z,49.65
2022-08-26T13:26:50.376Z,49.78
2022-08-26T13:31:43.274Z,49.74
2022-08-26T13:36:39.946Z,49.74
2022-08-26T13:41:32.155Z,49.84
2022-08-26T13:46:25.010Z,49.63
2022-08-26T13:51:17.865Z,49.7
2022-08-26T13:56:11.162Z,49.57
2022-08-26T14:01:03.614Z,49.77
2022-08-26T14:05:56.239Z,49.67
2022-08-26T14:15:41.720Z,49.91
2022-08-26T14:20:34.580Z,50.07
2022-08-26T14:25:27.173Z,50.15
2022-08-26T14:30:19.895Z,50.15
2022-08-26T14:35:12.866Z,50
2022-08-26T14:40:05.659Z,50.21
2022-08-26T14:44:58.581Z,50.03
2022-08-26T14:49:51.533Z,50.15
2022-08-26T14:54:44.269Z,49.83
2022-08-26T14:59:37.139Z,49.26
2022-08-26T15:04:29.887Z,49.71
2022-08-26T15:09:22.676Z,49.77
2022-08-26T15:14:19.751Z,50.78
2022-08-26T15:19:08.157Z,51.67
2022-08-26T15:24:00.927Z,52.08
2022-08-26T15:28:53.341Z,53.58
2022-08-26T15:33:45.619Z,54.19
2022-08-26T15:38:38.454Z,53.74
2022-08-26T15:43:31.054Z,53.96
2022-08-26T15:48:22.724Z,54.42
2022-08-26T15:53:16.097Z,53.56
2022-08-26T15:58:09.810Z,53.27
2022-08-26T16:03:02.110Z,54.19
2022-08-26T16:07:55.069Z,53.68
2022-08-26T16:12:47.533Z,54.59
2022-08-26T16:22:32.237Z,55.27
2022-08-26T16:32:18.189Z,54.77
2022-08-26T16:42:04.054Z,55.07
2022-08-26T16:46:51.246Z,55.54
2022-08-26T16:51:44.442Z,56.08
2022-08-26T16:56:38.274Z,57.27
2022-08-26T17:01:31.245Z,58.45
2022-08-26T17:06:23.442Z,58.13
2022-08-26T17:11:16.104Z,56.86
2022-08-26T17:16:04.205Z,57.74
2022-08-26T17:20:56.624Z,56.6
2022-08-26T17:25:51.086Z,55.67
2022-08-26T17:30:43.766Z,55.56
2022-08-26T17:35:36.551Z,55.71
2022-08-26T17:40:29.094Z,56.56
2022-08-26T17:45:21.946Z,56.45
2022-08-26T17:50:15.010Z,55.77
2022-08-26T17:55:07.484Z,56.23
2022-08-26T17:59:59.457Z,57.12
2022-08-26T18:04:52.705Z,55.77
2022-08-26T18:09:45.597Z,55.48
2022-08-26T18:14:38.616Z,55.14
2022-08-26T18:19:31.480Z,54.91
2022-08-26T18:24:18.154Z,54.99
2022-08-26T18:29:12.006Z,54.77
2022-08-26T18:34:07.098Z,54.72
2022-08-26T18:39:01.087Z,54.53
2022-08-26T18:43:53.426Z,54.47
2022-08-26T18:48:51.123Z,54.33
2022-08-26T18:53:38.906Z,54.44
2022-08-26T18:58:31.691Z,54.38
2022-08-26T19:03:24.680Z,54.27
2022-08-26T19:08:19.395Z,54.23
2022-08-26T19:13:05.874Z,54.28
2022-08-26T19:17:59.841Z,54.18
2022-08-26T19:22:53.816Z,54.13
2022-08-26T19:27:47.696Z,54.25
2022-08-26T19:32:40.387Z,54.21
2022-08-26T19:37:32.951Z,54.16
2022-08-26T19:42:25.780Z,54.27
2022-08-26T19:47:18.337Z,54.13
2022-08-26T19:52:11.117Z,54.29
2022-08-26T19:57:03.759Z,54.21
2022-08-26T20:02:00.905Z,54.23
2022-08-26T20:06:49.460Z,54.2
2022-08-26T20:11:42.362Z,54.14
2022-08-26T20:16:35.196Z,54.17
2022-08-26T20:21:27.731Z,54.17
2022-08-26T20:26:20.469Z,54.17
2022-08-26T20:31:12.984Z,53.97
2022-08-26T20:36:07.236Z,53.91
2022-08-26T20:40:58.766Z,53.85
2022-08-26T20:45:51.680Z,53.9
2022-08-26T20:50:44.330Z,53.92
2022-08-26T20:55:37.357Z,53.77
2022-08-26T21:00:24.599Z,53.72
2022-08-26T21:05:19.758Z,53.71
2022-08-26T21:10:06.879Z,53.66
2022-08-26T21:15:02.399Z,53.69
2022-08-26T21:19:55.681Z,53.67
2022-08-26T21:24:48.534Z,53.74
2022-08-26T21:29:41.366Z,53.66
2022-08-26T21:34:34.386Z,53.59
2022-08-26T21:39:27.011Z,53.58
2022-08-26T21:44:19.460Z,53.56
2022-08-26T21:49:12.141Z,53.51
2022-08-26T21:54:07.574Z,53.57
2022-08-26T21:58:57.459Z,53.53
2022-08-26T22:03:50.490Z,53.46
2022-08-26T22:08:43.093Z,53.46
2022-08-26T22:13:35.875Z,53.5
2022-08-26T22:18:28.500Z,53.46
2022-08-26T22:28:14.539Z,53.52
2022-08-26T22:38:00.165Z,53.36
2022-08-26T22:47:40.738Z,53.38
2022-08-26T22:57:22.437Z,53.35
2022-08-26T23:02:16.112Z,53.29
2022-08-26T23:07:08.909Z,53.34
2022-08-26T23:12:03.802Z,53.25
2022-08-26T23:16:56.838Z,53.21
2022-08-26T23:21:49.429Z,53.31
2022-08-26T23:26:42.240Z,53.25
2022-08-26T23:31:34.721Z,53.32
2022-08-26T23:36:29.295Z,53.34
2022-08-26T23:41:21.711Z,53.35
2022-08-26T23:46:14.745Z,53.34
2022-08-26T23:51:09.453Z,53.35
2022-08-26T23:56:02.019Z,53.28
